Pitt Meadows, British Columbia

01:18 PDT le 02 août 2015 (GMT -0700)
Pitt Meadows Chez Douglas | | Change Station
CLOSE
Current Station
Stations météorologiques personnelles
Location: Pitt Meadows, BRITISH COLUMBIA
Altitude: 66 ft
Stations météo à proximité

Alt. 66 ft 49.22 °N, 122.69 °W | Updated 11 minutes ago

Mostly Cloudy
Nuageux
65.8 ° F
Paraît 65.8 ° F
N
0.0
Vent Variable Vent de ENE

Aujourd'hui
Haut(e) -- | Bas -- ° F
--% Risque de précip.
Hier
Haut(e) -- | Bas -- ° F
Precip. -- pouce
5:44 AM 8:48 PM
Lune gibbeuse décroissante, 95% visible
Pression 29.91 pouce
Visibilité 10.0 Miles terrestres
Nuages Nuageux 22000 ft
Point de rosée 58 ° F
Humidité 77%
Précipitations 0.00 pouce
Profondeur de la couche neigeuse Non disponible.
UV 0 sur 12
Pollen Non disponible.
Qualité de l'air Non disponible.
Flu Activity Non disponible.
METAR CYXX 020800Z 25005KT 10SM BKN220 19/14 A2991 RMK CI6 SLP129 DENSITY ALT 600FT

More Conditions Fewer Conditions

Pression 29.91 pouce
Visibilité 10.0 Miles terrestres
Nuages Nuageux 22000 ft
Point de rosée 58 ° F
Humidité 77%
Précipitations 0.00 pouce
Profondeur de la couche neigeuse Non disponible.
UV 0 sur 12
Pollen Non disponible.
Qualité de l'air Non disponible.
Flu Activity Non disponible.
METAR CYXX 020800Z 25005KT 10SM BKN220 19/14 A2991 RMK CI6 SLP129 DENSITY ALT 600FT

More Conditions Fewer Conditions

10-Day Weather Forecast

×

Almanac

Astronomie

Aug. 02, 2015 Lever Coucher
Temps réel
Crépuscule civil
Crépuscule nautique
Crépuscule astronomique
Lune
Durée de lumière visible
Longueur du jour
Tomorrow will be .
, % of the Moon is Illuminated

Extrêmes aujourd'hui

Country Highs Country Lows

Community

WunderPhotos

Upload Photos

1,843,207 Photos téléchargées !

WunderBlogs® & News

Nearby

Qualité de l'air

  Qualité de l'air Indice de la qualité de l'air Polluant
Not available.

Épaisseur de neige

Station Depth Altitude

Activité sismique

Ville Distance Mag. Time & Date
Minimum magnitude displayed is 2.5.

Températures des eaux côtières

Lieu Température

Stations

Stations météo à proximité

Emplacement de la station Température Refroidissement éolien Point de rosée Humidité Vent Precip. Alt. Mise à jour Type